MET'MAP v2.0
soon released !

Expected late october,
this new version will be
more efficient, smarter,
and hosted on a brand new
server x3 powerfull...
...and still free !


Not compatible ?
Try the mobile version !

LOG IN : | Subscribe | Disclaimer | Who is Orbifly ? |
ICAO code :

TAF - LOWZ Zell Am See Airport - 09 Dec 2019 03:20 UTC
Data Sources :     NOAA   


- Airport Elevation : 2470 ft
- No reported NOTAMs.


LOWZ - Zell Am See Airport

Latest METAR recorded : 2015/08/11 08:00 LOWZ 110800Z VRB02KT 40KM FEW060CU 21/14 Q1018 RMK FEW
NO TAF


MET'MAP, your aeronautical weather chart ! - Copyright ORBIFLY December 2007

Programming & Development : Alexandra Zaïnal
Co-Developer : Marc-Olivier Méhu
Technical & hardware support : Manuel Goepfert
Concept & Financing : Baudouin d'Aumeries